Time;durP1;ratioP1;P1;durP2;ratioP2;P2;SDS_P1;SDS_P2;PMS_P1;PMS_P2;Temp;Humidity;BMP_temperature;BMP_pressure;BME280_temperature;BME280_humidity;BME280_pressure;Samples;Min_cycle;Max_cycle;Signal;HPM_P1;HPM_P2
2024/01/11 00:02:06;;;;;;;12.02;4.05;;;;;;;;;;4959311;28;20045;-79
2024/01/11 00:04:34;;;;;;;6.05;3.40;;;;;;;;;;4955478;28;20086;-80
2024/01/11 00:07:02;;;;;;;6.82;2.72;;;;;;;;;;4957512;28;20198;-79
2024/01/11 00:09:29;;;;;;;4.72;4.25;;;;;;;;;;4954963;28;20043;-79
2024/01/11 00:11:57;;;;;;;1.13;1.02;;;;;;;;;;4959130;28;20054;-85
2024/01/11 00:14:24;;;;;;;6.72;2.45;;;;;;;;;;4960539;28;20564;-88
2024/01/11 00:16:52;;;;;;;3.75;3.40;;;;;;;;;;4960109;28;20050;-80
2024/01/11 00:19:20;;;;;;;2.72;2.15;;;;;;;;;;4952001;28;20102;-79
2024/01/11 00:21:47;;;;;;;13.30;8.40;;;;;;;;;;4957602;28;20055;-79
2024/01/11 00:24:15;;;;;;;3.65;3.33;;;;;;;;;;4962900;28;20129;-79
2024/01/11 00:26:42;;;;;;;21.17;8.60;;;;;;;;;;4958997;28;20051;-82
2024/01/11 00:29:10;;;;;;;4.50;4.10;;;;;;;;;;4962968;28;20519;-79
2024/01/11 00:31:38;;;;;;;4.22;2.78;;;;;;;;;;4958169;28;20039;-79
2024/01/11 00:34:06;;;;;;;4.22;3.83;;;;;;;;;;4950969;28;20123;-79
2024/01/11 00:36:34;;;;;;;4.95;3.22;;;;;;;;;;4956882;28;20043;-80
2024/01/11 00:39:02;;;;;;;6.88;4.85;;;;;;;;;;4960510;28;20146;-79
2024/01/11 00:41:29;;;;;;;5.03;3.53;;;;;;;;;;4953051;28;20158;-79
2024/01/11 00:43:57;;;;;;;14.63;9.70;;;;;;;;;;4954138;28;20495;-79
2024/01/11 00:46:24;;;;;;;6.10;3.13;;;;;;;;;;4953089;28;20150;-80
2024/01/11 00:48:52;;;;;;;6.13;4.75;;;;;;;;;;4954441;28;20046;-79
2024/01/11 00:51:23;;;;;;;4.15;3.63;;;;;;;;;;4951525;28;20124;-81
2024/01/11 00:53:50;;;;;;;4.35;3.72;;;;;;;;;;4957669;28;20141;-80
2024/01/11 00:56:19;;;;;;;5.53;4.07;;;;;;;;;;4960499;28;20472;-80
2024/01/11 00:58:46;;;;;;;6.72;4.13;;;;;;;;;;4962833;28;20066;-79
2024/01/11 01:01:14;;;;;;;9.07;2.28;;;;;;;;;;4955588;28;20232;-79
2024/01/11 01:03:42;;;;;;;6.95;4.47;;;;;;;;;;4963120;28;20050;-79
2024/01/11 01:06:09;;;;;;;1.33;1.23;;;;;;;;;;4959383;28;20043;-80
2024/01/11 01:08:37;;;;;;;5.57;3.33;;;;;;;;;;4962010;28;20138;-79
2024/01/11 01:11:05;;;;;;;5.72;4.25;;;;;;;;;;4959572;28;20086;-79
2024/01/11 01:13:33;;;;;;;9.98;6.28;;;;;;;;;;4959449;28;20090;-79
2024/01/11 01:16:00;;;;;;;2.63;2.42;;;;;;;;;;4958055;28;20101;-79
2024/01/11 01:18:28;;;;;;;2.95;2.42;;;;;;;;;;4953936;28;20055;-79
2024/01/11 01:20:56;;;;;;;2.05;1.90;;;;;;;;;;4966171;28;20081;-86
2024/01/11 01:23:23;;;;;;;2.95;2.85;;;;;;;;;;4959736;28;20053;-79
2024/01/11 01:25:51;;;;;;;3.42;3.15;;;;;;;;;;4960794;28;20058;-79
2024/01/11 01:28:19;;;;;;;9.20;6.85;;;;;;;;;;4957256;28;20451;-80
2024/01/11 01:30:47;;;;;;;7.45;3.22;;;;;;;;;;4984064;28;20062;-79
2024/01/11 01:33:14;;;;;;;3.30;2.95;;;;;;;;;;4959198;28;20066;-79
2024/01/11 01:35:42;;;;;;;6.05;4.68;;;;;;;;;;4959618;28;20050;-79
2024/01/11 01:38:10;;;;;;;18.65;7.90;;;;;;;;;;4962777;28;20513;-79
2024/01/11 01:40:37;;;;;;;5.25;4.85;;;;;;;;;;4955509;28;20051;-80
2024/01/11 01:43:12;;;;;;;3.00;2.78;;;;;;;;;;4964221;28;20050;-79
2024/01/11 01:45:40;;;;;;;13.55;10.10;;;;;;;;;;4957798;28;20054;-79
2024/01/11 01:48:08;;;;;;;3.17;2.30;;;;;;;;;;4956340;28;20600;-79
2024/01/11 01:50:36;;;;;;;2.72;2.35;;;;;;;;;;4958139;28;20054;-80
2024/01/11 01:53:04;;;;;;;4.40;2.90;;;;;;;;;;4953072;28;20042;-83
2024/01/11 01:55:32;;;;;;;5.15;4.47;;;;;;;;;;4960054;28;20050;-79
2024/01/11 01:58:00;;;;;;;4.43;3.10;;;;;;;;;;4962474;28;20077;-79
2024/01/11 02:00:28;;;;;;;3.97;3.28;;;;;;;;;;4955048;28;20067;-79
2024/01/11 02:02:55;;;;;;;11.75;5.22;;;;;;;;;;4957653;28;20051;-79
2024/01/11 02:05:24;;;;;;;1.15;1.08;;;;;;;;;;4955771;28;20043;-79
2024/01/11 02:07:52;;;;;;;5.55;4.57;;;;;;;;;;4959084;28;20299;-79
2024/01/11 02:10:20;;;;;;;6.70;2.55;;;;;;;;;;4962981;28;20054;-79
2024/01/11 02:12:47;;;;;;;7.05;3.20;;;;;;;;;;4966361;28;20054;-79
2024/01/11 02:15:15;;;;;;;3.88;2.50;;;;;;;;;;4960104;28;20124;-79
2024/01/11 02:17:43;;;;;;;13.93;9.00;;;;;;;;;;4957522;28;20071;-79
2024/01/11 02:20:11;;;;;;;3.65;3.05;;;;;;;;;;4960657;28;20078;-85
2024/01/11 02:22:41;;;;;;;0.68;0.68;;;;;;;;;;4942924;28;20700;-87
2024/01/11 02:25:09;;;;;;;1.80;1.73;;;;;;;;;;4961696;28;20042;-79
2024/01/11 02:27:46;;;;;;;2.72;2.53;;;;;;;;;;4961163;28;20420;-79
2024/01/11 02:30:15;;;;;;;2.30;2.17;;;;;;;;;;4962863;28;20452;-79
2024/01/11 02:32:46;;;;;;;2.72;2.53;;;;;;;;;;4953470;28;20054;-79
2024/01/11 02:35:17;;;;;;;1.13;1.13;;;;;;;;;;4962578;28;20055;-79
2024/01/11 02:37:45;;;;;;;2.15;2.05;;;;;;;;;;4958133;28;20043;-79
2024/01/11 02:40:13;;;;;;;6.50;4.55;;;;;;;;;;4958619;28;20049;-80
2024/01/11 02:42:42;;;;;;;5.00;4.70;;;;;;;;;;4958337;28;20123;-79
2024/01/11 02:45:11;;;;;;;6.22;3.78;;;;;;;;;;4954865;28;20050;-79
2024/01/11 02:47:39;;;;;;;7.05;3.90;;;;;;;;;;4958604;28;20054;-79
2024/01/11 02:50:07;;;;;;;7.97;5.28;;;;;;;;;;4965541;28;20421;-79
2024/01/11 02:52:35;;;;;;;5.88;4.80;;;;;;;;;;4958732;28;20049;-79
2024/01/11 02:55:03;;;;;;;5.70;2.35;;;;;;;;;;4966125;28;20477;-78
2024/01/11 02:57:31;;;;;;;3.33;3.03;;;;;;;;;;4952670;28;20575;-78
2024/01/11 02:59:58;;;;;;;2.53;2.33;;;;;;;;;;4961247;28;20094;-82
2024/01/11 03:02:26;;;;;;;6.30;4.93;;;;;;;;;;4965528;28;20051;-78
2024/01/11 03:04:53;;;;;;;5.88;4.88;;;;;;;;;;4963070;28;20047;-79
2024/01/11 03:07:21;;;;;;;6.65;6.05;;;;;;;;;;4962027;28;20046;-78
2024/01/11 03:09:48;;;;;;;5.05;4.78;;;;;;;;;;4961616;28;20053;-78
2024/01/11 03:12:16;;;;;;;2.42;1.95;;;;;;;;;;4967122;28;20066;-81
2024/01/11 03:14:44;;;;;;;2.55;2.40;;;;;;;;;;4962886;28;20046;-84
2024/01/11 03:17:12;;;;;;;4.55;3.92;;;;;;;;;;4958669;28;20513;-79
2024/01/11 03:19:43;;;;;;;9.85;4.22;;;;;;;;;;4953918;28;20413;-79
2024/01/11 03:22:12;;;;;;;2.10;1.98;;;;;;;;;;4981559;28;20082;-78
2024/01/11 03:24:40;;;;;;;10.55;6.70;;;;;;;;;;4961051;28;20043;-79
2024/01/11 03:27:08;;;;;;;6.10;3.88;;;;;;;;;;4956340;28;20042;-79
2024/01/11 03:29:35;;;;;;;2.25;2.15;;;;;;;;;;4962162;28;20047;-79
2024/01/11 03:32:03;;;;;;;4.90;4.43;;;;;;;;;;4960709;28;20050;-79
2024/01/11 03:34:31;;;;;;;5.93;4.22;;;;;;;;;;4964273;28;20485;-79
2024/01/11 03:36:59;;;;;;;4.32;3.78;;;;;;;;;;4959369;28;20049;-78
2024/01/11 03:39:27;;;;;;;1.45;1.38;;;;;;;;;;4967934;28;20058;-78
2024/01/11 03:41:54;;;;;;;3.90;3.53;;;;;;;;;;4962807;28;20059;-79
2024/01/11 03:44:22;;;;;;;6.18;4.88;;;;;;;;;;4960555;28;20516;-78
2024/01/11 03:46:51;;;;;;;3.33;1.92;;;;;;;;;;4962994;28;20102;-86
2024/01/11 03:49:19;;;;;;;4.10;3.78;;;;;;;;;;4960536;28;20046;-84
2024/01/11 03:51:46;;;;;;;4.97;3.80;;;;;;;;;;4965254;28;20047;-78
2024/01/11 03:54:14;;;;;;;4.55;2.75;;;;;;;;;;4965886;28;20057;-78
2024/01/11 03:56:44;;;;;;;4.57;3.15;;;;;;;;;;4962078;28;20694;-78
2024/01/11 03:59:14;;;;;;;8.18;5.13;;;;;;;;;;4957731;28;20050;-78
2024/01/11 04:01:42;;;;;;;6.43;4.20;;;;;;;;;;4975309;28;20114;-78
2024/01/11 04:04:09;;;;;;;3.45;3.20;;;;;;;;;;4961026;28;20053;-78
2024/01/11 04:06:37;;;;;;;11.50;3.10;;;;;;;;;;4963973;28;20128;-78
2024/01/11 04:09:05;;;;;;;3.78;3.38;;;;;;;;;;4968481;28;20565;-78
2024/01/11 04:11:32;;;;;;;2.47;2.28;;;;;;;;;;4966480;28;20551;-78
2024/01/11 04:14:00;;;;;;;21.88;10.60;;;;;;;;;;4954934;28;20047;-79
2024/01/11 04:16:29;;;;;;;8.60;6.63;;;;;;;;;;4952306;28;20054;-78
2024/01/11 04:18:56;;;;;;;5.32;4.85;;;;;;;;;;4959351;28;20062;-86
2024/01/11 04:21:28;;;;;;;9.85;4.45;;;;;;;;;;4953827;28;20050;-82
2024/01/11 04:23:56;;;;;;;5.18;2.25;;;;;;;;;;4959078;28;20121;-78
2024/01/11 04:26:23;;;;;;;3.65;3.25;;;;;;;;;;4956627;28;20057;-78
2024/01/11 04:28:52;;;;;;;5.28;4.70;;;;;;;;;;4960465;28;20047;-78
2024/01/11 04:31:24;;;;;;;4.30;3.92;;;;;;;;;;4953945;28;20047;-78
2024/01/11 04:33:51;;;;;;;9.80;5.82;;;;;;;;;;4948747;28;20047;-78
2024/01/11 04:39:14;;;;;;;20.42;9.95;;;;;;;;;;4980607;28;20031;-78
2024/01/11 04:41:41;;;;;;;4.90;4.03;;;;;;;;;;4980432;28;20503;-78
2024/01/11 04:44:09;;;;;;;11.57;6.63;;;;;;;;;;4978451;28;20046;-79
2024/01/11 04:46:37;;;;;;;11.35;5.10;;;;;;;;;;4959836;28;20061;-82
2024/01/11 04:49:04;;;;;;;10.40;6.05;;;;;;;;;;4968948;28;20504;-79
2024/01/11 04:51:32;;;;;;;11.88;7.03;;;;;;;;;;4973928;28;20480;-78
2024/01/11 04:54:00;;;;;;;9.32;7.50;;;;;;;;;;4975473;28;20082;-78
2024/01/11 04:56:29;;;;;;;10.07;6.68;;;;;;;;;;4972652;28;20567;-78
2024/01/11 04:58:58;;;;;;;5.65;4.53;;;;;;;;;;4969273;28;20084;-78
2024/01/11 05:01:26;;;;;;;12.82;4.13;;;;;;;;;;4969606;28;20096;-78
2024/01/11 05:03:54;;;;;;;5.95;3.85;;;;;;;;;;4974265;28;20668;-79
2024/01/11 05:06:22;;;;;;;11.82;7.38;;;;;;;;;;4975516;28;20057;-80
2024/01/11 05:08:51;;;;;;;6.80;3.10;;;;;;;;;;4974055;28;20076;-80
2024/01/11 05:11:20;;;;;;;8.98;6.18;;;;;;;;;;4959682;28;20054;-80
2024/01/11 05:13:48;;;;;;;11.20;5.55;;;;;;;;;;4981043;28;20046;-81
2024/01/11 05:16:23;;;;;;;18.13;13.10;;;;;;;;;;4972902;28;20097;-79
2024/01/11 05:18:55;;;;;;;11.02;4.38;;;;;;;;;;4975215;28;20054;-78
2024/01/11 05:21:23;;;;;;;20.55;6.53;;;;;;;;;;4970873;28;20042;-81
2024/01/11 05:23:52;;;;;;;12.68;8.18;;;;;;;;;;4978791;28;20054;-81
2024/01/11 05:26:20;;;;;;;16.63;7.10;;;;;;;;;;4971957;28;20034;-78
2024/01/11 05:28:48;;;;;;;5.38;4.07;;;;;;;;;;4981327;28;20116;-78
2024/01/11 05:31:16;;;;;;;6.80;4.90;;;;;;;;;;4969700;28;20055;-78
2024/01/11 05:33:46;;;;;;;8.98;5.53;;;;;;;;;;4965258;28;20057;-79
2024/01/11 05:36:15;;;;;;;14.55;10.93;;;;;;;;;;4976091;28;20174;-79
2024/01/11 05:38:42;;;;;;;4.32;3.63;;;;;;;;;;4976475;28;20448;-80
2024/01/11 05:41:10;;;;;;;6.13;3.85;;;;;;;;;;4960170;28;20081;-78
2024/01/11 05:43:39;;;;;;;12.00;6.40;;;;;;;;;;4977539;28;20069;-78
2024/01/11 05:46:07;;;;;;;15.70;7.85;;;;;;;;;;4975138;28;20046;-77
2024/01/11 05:48:35;;;;;;;11.02;4.32;;;;;;;;;;4971693;28;20803;-78
2024/01/11 05:51:03;;;;;;;11.88;8.73;;;;;;;;;;4979225;28;20485;-78
2024/01/11 05:53:33;;;;;;;9.23;5.63;;;;;;;;;;4979389;28;20069;-78
2024/01/11 05:56:01;;;;;;;7.18;4.68;;;;;;;;;;4980324;28;20047;-78
2024/01/11 05:58:29;;;;;;;4.65;3.88;;;;;;;;;;4979474;28;20054;-76
2024/01/11 06:00:57;;;;;;;3.95;3.08;;;;;;;;;;4975881;28;20125;-80
2024/01/11 06:03:24;;;;;;;7.45;3.85;;;;;;;;;;4973769;28;20082;-80
2024/01/11 06:05:52;;;;;;;16.60;6.35;;;;;;;;;;4973288;28;20076;-77
2024/01/11 06:08:20;;;;;;;8.82;4.65;;;;;;;;;;4968011;28;20145;-76
2024/01/11 06:10:48;;;;;;;7.05;4.38;;;;;;;;;;4975188;28;20069;-80
2024/01/11 06:13:15;;;;;;;8.40;6.15;;;;;;;;;;4962114;28;20101;-81
2024/01/11 06:15:43;;;;;;;14.50;4.78;;;;;;;;;;4975673;28;20073;-79
2024/01/11 06:18:11;;;;;;;7.85;6.72;;;;;;;;;;4972148;28;20820;-79
2024/01/11 06:20:39;;;;;;;5.68;5.20;;;;;;;;;;4977676;28;20042;-79
2024/01/11 06:23:06;;;;;;;13.50;8.48;;;;;;;;;;4971806;28;20046;-79
2024/01/11 06:25:34;;;;;;;5.93;4.22;;;;;;;;;;4976971;28;20107;-79
2024/01/11 06:28:04;;;;;;;6.47;4.97;;;;;;;;;;4969612;28;20582;-79
2024/01/11 06:30:32;;;;;;;12.68;6.43;;;;;;;;;;4975301;28;20050;-79
2024/01/11 06:33:00;;;;;;;6.10;5.03;;;;;;;;;;4974831;28;20045;-79
2024/01/11 06:35:28;;;;;;;4.65;4.35;;;;;;;;;;4973670;28;20578;-79
2024/01/11 06:37:56;;;;;;;7.53;5.68;;;;;;;;;;4972992;28;20365;-79
2024/01/11 06:40:24;;;;;;;8.48;6.55;;;;;;;;;;4973240;28;20184;-79
2024/01/11 06:42:51;;;;;;;16.77;10.60;;;;;;;;;;4966032;28;20082;-79
2024/01/11 06:45:19;;;;;;;12.52;9.32;;;;;;;;;;4965817;28;20049;-79
2024/01/11 06:47:48;;;;;;;3.90;3.35;;;;;;;;;;4968506;28;20204;-79
2024/01/11 06:50:17;;;;;;;1.80;1.70;;;;;;;;;;4969051;28;20049;-79
2024/01/11 06:52:45;;;;;;;6.95;4.32;;;;;;;;;;4971570;28;20042;-79
2024/01/11 06:55:12;;;;;;;3.08;2.75;;;;;;;;;;4974562;28;20763;-79
2024/01/11 06:57:40;;;;;;;4.72;4.32;;;;;;;;;;4963801;28;20628;-79
2024/01/11 07:00:08;;;;;;;1.08;1.08;;;;;;;;;;4968149;28;20050;-79
2024/01/11 07:02:36;;;;;;;15.65;4.95;;;;;;;;;;4973362;28;20497;-79
2024/01/11 07:05:03;;;;;;;16.08;8.75;;;;;;;;;;4967635;28;20128;-79
2024/01/11 07:07:32;;;;;;;3.22;2.88;;;;;;;;;;4970709;28;20046;-79
2024/01/11 07:10:00;;;;;;;2.60;2.40;;;;;;;;;;4973592;28;20866;-79
2024/01/11 07:12:28;;;;;;;7.68;6.57;;;;;;;;;;4987556;28;20042;-79
2024/01/11 07:14:56;;;;;;;11.00;6.15;;;;;;;;;;4972081;28;20050;-79
2024/01/11 07:17:24;;;;;;;7.25;5.35;;;;;;;;;;4968193;28;20170;-78
2024/01/11 07:19:51;;;;;;;7.07;6.38;;;;;;;;;;4963410;28;20141;-79
2024/01/11 07:22:19;;;;;;;4.72;3.28;;;;;;;;;;4967567;28;20074;-79
2024/01/11 07:24:47;;;;;;;5.78;4.18;;;;;;;;;;4980275;28;20050;-79
2024/01/11 07:27:14;;;;;;;8.15;5.72;;;;;;;;;;4977620;28;20496;-78
2024/01/11 07:29:42;;;;;;;6.43;5.53;;;;;;;;;;4957313;28;20497;-79
2024/01/11 07:32:10;;;;;;;5.55;4.50;;;;;;;;;;4963432;28;20054;-79
2024/01/11 07:34:38;;;;;;;13.13;6.63;;;;;;;;;;4963881;28;20082;-78
2024/01/11 07:37:06;;;;;;;2.95;2.38;;;;;;;;;;4966153;28;20050;-79
2024/01/11 07:39:36;;;;;;;10.38;5.90;;;;;;;;;;4971430;28;20109;-78
2024/01/11 07:42:04;;;;;;;8.15;4.70;;;;;;;;;;4969249;28;20049;-78
2024/01/11 07:44:32;;;;;;;8.13;5.32;;;;;;;;;;4983613;28;20129;-79
2024/01/11 07:46:59;;;;;;;11.13;6.95;;;;;;;;;;4976829;28;20042;-79
2024/01/11 07:49:29;;;;;;;4.80;3.67;;;;;;;;;;4979322;28;20051;-79
2024/01/11 07:51:56;;;;;;;7.70;4.88;;;;;;;;;;4984042;28;20405;-78
2024/01/11 07:54:24;;;;;;;2.17;1.98;;;;;;;;;;4982935;28;20420;-78
2024/01/11 07:56:51;;;;;;;10.82;9.65;;;;;;;;;;4969827;28;20146;-79
2024/01/11 07:59:19;;;;;;;6.22;5.65;;;;;;;;;;4979527;28;20054;-79
2024/01/11 08:01:48;;;;;;;2.70;2.40;;;;;;;;;;4975872;28;20055;-79
2024/01/11 08:04:15;;;;;;;5.18;4.68;;;;;;;;;;4964688;28;20053;-79
2024/01/11 08:06:43;;;;;;;5.93;5.20;;;;;;;;;;4970261;28;20046;-79
2024/01/11 08:09:13;;;;;;;9.35;6.63;;;;;;;;;;4981847;28;20133;-79
2024/01/11 08:11:44;;;;;;;1.98;1.88;;;;;;;;;;4980664;28;20045;-79
2024/01/11 08:14:18;;;;;;;4.05;3.72;;;;;;;;;;4978200;28;20054;-79
2024/01/11 08:16:45;;;;;;;1.58;1.48;;;;;;;;;;4972208;28;20078;-78
2024/01/11 08:19:14;;;;;;;8.13;6.07;;;;;;;;;;4976235;28;20510;-79
2024/01/11 08:21:42;;;;;;;7.38;4.93;;;;;;;;;;4974934;28;20651;-79
2024/01/11 08:24:10;;;;;;;9.75;5.50;;;;;;;;;;4976259;28;20220;-78
2024/01/11 08:26:37;;;;;;;8.05;5.93;;;;;;;;;;4978023;28;20500;-78
2024/01/11 08:29:05;;;;;;;5.75;4.43;;;;;;;;;;4974895;28;20051;-79
2024/01/11 08:31:34;;;;;;;1.20;1.20;;;;;;;;;;4972888;28;20048;-78
2024/01/11 08:34:04;;;;;;;;;;;;;;;;;;4967803;28;20046;-79
2024/01/11 08:36:34;;;;;;;5.65;4.20;;;;;;;;;;4978814;28;20068;-78
2024/01/11 08:39:12;;;;;;;18.88;17.23;;;;;;;;;;4966752;28;20070;-79
2024/01/11 08:41:40;;;;;;;12.65;6.55;;;;;;;;;;4975015;28;20781;-79
2024/01/11 08:44:08;;;;;;;5.57;4.32;;;;;;;;;;4979368;28;20054;-80
2024/01/11 08:46:37;;;;;;;11.95;6.50;;;;;;;;;;4966395;28;20097;-79
2024/01/11 08:49:08;;;;;;;17.10;9.13;;;;;;;;;;4971630;28;20086;-79
2024/01/11 08:51:36;;;;;;;2.45;2.35;;;;;;;;;;4979993;28;20097;-79
2024/01/11 08:54:04;;;;;;;8.70;3.97;;;;;;;;;;4969383;28;20051;-79
2024/01/11 08:56:31;;;;;;;6.90;5.22;;;;;;;;;;4974463;28;20077;-79
2024/01/11 08:59:00;;;;;;;4.38;3.78;;;;;;;;;;4984509;28;20039;-79
2024/01/11 09:01:29;;;;;;;7.85;4.38;;;;;;;;;;4975111;28;20077;-79
2024/01/11 09:03:57;;;;;;;3.65;3.35;;;;;;;;;;4971602;28;20506;-79
2024/01/11 09:06:25;;;;;;;3.45;2.47;;;;;;;;;;4961170;28;20069;-79
2024/01/11 09:08:54;;;;;;;4.65;2.88;;;;;;;;;;4978601;28;20054;-79
2024/01/11 09:11:21;;;;;;;2.40;1.77;;;;;;;;;;4980211;28;20089;-79
2024/01/11 09:13:50;;;;;;;1.98;1.88;;;;;;;;;;4981205;28;20045;-77
2024/01/11 09:16:18;;;;;;;1.63;1.15;;;;;;;;;;4980638;28;20068;-78
2024/01/11 09:18:45;;;;;;;2.53;2.33;;;;;;;;;;4984974;28;20046;-78
2024/01/11 09:21:13;;;;;;;8.30;5.03;;;;;;;;;;4978292;28;20050;-78
2024/01/11 09:23:41;;;;;;;3.22;2.97;;;;;;;;;;4983781;28;20408;-78
2024/01/11 09:26:08;;;;;;;3.15;2.97;;;;;;;;;;4986265;28;20652;-78
2024/01/11 09:28:36;;;;;;;5.05;4.22;;;;;;;;;;4981648;28;20042;-77
2024/01/11 09:31:04;;;;;;;18.48;9.65;;;;;;;;;;4980162;28;20089;-77
2024/01/11 09:33:32;;;;;;;5.88;4.78;;;;;;;;;;4977527;28;20050;-78
2024/01/11 09:36:00;;;;;;;1.75;1.65;;;;;;;;;;4981863;28;20575;-78
2024/01/11 09:38:27;;;;;;;1.20;1.20;;;;;;;;;;4987558;28;20046;-77
2024/01/11 09:41:07;;;;;;;3.17;2.45;;;;;;;;;;4984241;28;20081;-77
2024/01/11 09:43:36;;;;;;;5.97;2.83;;;;;;;;;;4983583;28;20137;-77
2024/01/11 09:46:05;;;;;;;11.05;7.10;;;;;;;;;;4977310;28;20141;-78
2024/01/11 09:48:37;;;;;;;3.33;2.50;;;;;;;;;;4977753;28;20444;-78
2024/01/11 09:51:04;;;;;;;;;;;;;;;;;;4979564;28;20114;-80
2024/01/11 09:53:36;;;;;;;5.35;4.65;;;;;;;;;;4978378;28;19973;-79
2024/01/11 09:56:05;;;;;;;2.88;2.63;;;;;;;;;;4976127;28;20173;-79
2024/01/11 09:58:33;;;;;;;5.25;4.82;;;;;;;;;;4984036;28;20495;-79
2024/01/11 10:01:01;;;;;;;8.45;6.03;;;;;;;;;;4979247;28;20568;-78
2024/01/11 10:03:29;;;;;;;11.80;7.88;;;;;;;;;;4973933;28;20051;-79
2024/01/11 10:05:59;;;;;;;8.40;5.47;;;;;;;;;;4976251;28;20053;-79
2024/01/11 10:08:27;;;;;;;30.10;9.55;;;;;;;;;;4971922;28;20048;-79
2024/01/11 10:10:55;;;;;;;2.33;2.20;;;;;;;;;;4970357;28;20630;-78
2024/01/11 10:13:29;;;;;;;3.78;3.42;;;;;;;;;;4976099;28;20066;-78
2024/01/11 10:16:06;;;;;;;11.30;7.53;;;;;;;;;;4974592;28;20058;-78
2024/01/11 10:18:34;;;;;;;1.40;1.33;;;;;;;;;;4982749;28;20640;-78
2024/01/11 10:21:02;;;;;;;2.28;2.15;;;;;;;;;;4983028;28;20564;-78
2024/01/11 10:23:33;;;;;;;7.85;5.82;;;;;;;;;;4978765;28;20412;-79
2024/01/11 10:26:01;;;;;;;4.28;3.80;;;;;;;;;;4983330;28;20128;-79
2024/01/11 10:28:29;;;;;;;10.95;6.47;;;;;;;;;;4985498;28;20042;-78
2024/01/11 10:30:57;;;;;;;3.60;3.05;;;;;;;;;;4983728;28;20050;-80
2024/01/11 10:33:25;;;;;;;12.70;4.32;;;;;;;;;;4989049;28;20077;-79
2024/01/11 10:35:53;;;;;;;1.95;1.85;;;;;;;;;;4994644;28;20050;-79
2024/01/11 10:38:21;;;;;;;9.60;5.78;;;;;;;;;;4995005;28;20042;-76
2024/01/11 10:40:49;;;;;;;3.28;3.08;;;;;;;;;;4988430;28;20210;-77
2024/01/11 10:43:21;;;;;;;16.60;9.10;;;;;;;;;;4983268;28;20503;-77
2024/01/11 10:45:53;;;;;;;2.50;2.40;;;;;;;;;;4982969;28;20045;-77
2024/01/11 10:48:22;;;;;;;4.43;3.97;;;;;;;;;;4981470;28;20268;-76
2024/01/11 10:50:54;;;;;;;5.30;4.78;;;;;;;;;;4982377;28;20132;-76
2024/01/11 10:53:29;;;;;;;14.18;10.27;;;;;;;;;;4978599;28;20038;-77
2024/01/11 10:55:58;;;;;;;8.35;5.43;;;;;;;;;;4978680;28;20171;-76
2024/01/11 10:58:27;;;;;;;7.97;5.15;;;;;;;;;;4978031;28;20397;-77
2024/01/11 11:00:55;;;;;;;4.57;3.00;;;;;;;;;;4978030;28;20051;-76
2024/01/11 11:03:26;;;;;;;19.25;11.25;;;;;;;;;;4988282;28;20065;-79
2024/01/11 11:05:57;;;;;;;13.60;9.40;;;;;;;;;;4986532;28;20602;-79
2024/01/11 11:08:26;;;;;;;8.98;6.82;;;;;;;;;;4987632;28;20133;-79
2024/01/11 11:10:58;;;;;;;5.45;4.00;;;;;;;;;;4988635;28;20097;-78
2024/01/11 11:13:26;;;;;;;15.80;6.32;;;;;;;;;;5006581;28;20121;-79
2024/01/11 11:15:57;;;;;;;9.77;5.88;;;;;;;;;;4994299;28;20080;-79
2024/01/11 11:18:28;;;;;;;3.90;3.60;;;;;;;;;;4987403;28;20527;-81
2024/01/11 11:20:56;;;;;;;6.35;5.78;;;;;;;;;;4990554;28;20051;-79
2024/01/11 11:23:24;;;;;;;11.13;6.95;;;;;;;;;;4979188;28;20144;-83
2024/01/11 11:25:55;;;;;;;19.88;11.65;;;;;;;;;;4979321;28;20042;-80
2024/01/11 11:28:23;;;;;;;5.57;4.35;;;;;;;;;;4982816;28;20042;-80
2024/01/11 11:30:53;;;;;;;14.00;8.50;;;;;;;;;;4985308;28;20552;-81
2024/01/11 11:33:22;;;;;;;12.40;7.95;;;;;;;;;;4982942;28;21066;-81
2024/01/11 11:35:54;;;;;;;12.70;6.10;;;;;;;;;;4982567;28;20046;-82
2024/01/11 11:38:23;;;;;;;15.70;10.45;;;;;;;;;;5002332;23;20562;-77
2024/01/11 11:40:52;;;;;;;7.32;5.80;;;;;;;;;;4986063;28;20050;-77
2024/01/11 11:43:22;;;;;;;7.10;5.33;;;;;;;;;;4986068;28;20473;-79
2024/01/11 11:45:51;;;;;;;18.63;10.18;;;;;;;;;;4989942;28;20121;-79
2024/01/11 11:48:38;;;;;;;3.95;3.60;;;;;;;;;;4990210;28;20089;-80
2024/01/11 11:51:06;;;;;;;2.50;1.77;;;;;;;;;;4989910;28;20544;-80
2024/01/11 11:53:35;;;;;;;3.60;3.30;;;;;;;;;;4982054;28;20046;-80
2024/01/11 11:56:16;;;;;;;13.43;8.40;;;;;;;;;;5003579;28;20073;-80
2024/01/11 11:58:54;;;;;;;10.43;7.20;;;;;;;;;;4980852;28;20050;-80
2024/01/11 12:01:23;;;;;;;22.33;12.13;;;;;;;;;;4976046;28;20500;-79
2024/01/11 12:03:53;;;;;;;7.05;6.32;;;;;;;;;;4987645;28;20050;-80
2024/01/11 12:06:27;;;;;;;18.27;13.07;;;;;;;;;;4990158;28;20058;-80
2024/01/11 12:08:55;;;;;;;11.20;6.18;;;;;;;;;;4986784;28;20073;-79
2024/01/11 12:11:25;;;;;;;7.00;6.32;;;;;;;;;;4987660;28;20109;-80
2024/01/11 12:13:56;;;;;;;3.13;2.10;;;;;;;;;;4985295;28;20054;-80
2024/01/11 12:16:23;;;;;;;7.28;6.57;;;;;;;;;;4984352;28;20066;-79
2024/01/11 12:18:51;;;;;;;26.55;13.95;;;;;;;;;;4988144;28;20532;-79
2024/01/11 12:21:20;;;;;;;13.55;9.02;;;;;;;;;;4987361;28;20535;-79
2024/01/11 12:23:48;;;;;;;14.68;10.35;;;;;;;;;;4985055;28;20078;-79
2024/01/11 12:26:21;;;;;;;4.82;4.22;;;;;;;;;;4982559;28;20372;-79
2024/01/11 12:28:50;;;;;;;17.55;11.32;;;;;;;;;;4988279;28;20039;-79
2024/01/11 12:31:19;;;;;;;8.35;4.18;;;;;;;;;;4996440;28;20061;-79
2024/01/11 12:33:48;;;;;;;7.47;3.38;;;;;;;;;;5000960;28;20146;-79
2024/01/11 12:36:17;;;;;;;10.57;5.55;;;;;;;;;;4993124;28;20061;-79
2024/01/11 12:38:48;;;;;;;13.77;8.90;;;;;;;;;;4989142;28;20456;-79
2024/01/11 12:41:21;;;;;;;3.70;3.45;;;;;;;;;;4984479;28;20054;-80
2024/01/11 12:43:48;;;;;;;1.27;1.25;;;;;;;;;;4986633;28;20112;-79
2024/01/11 12:46:17;;;;;;;30.88;9.52;;;;;;;;;;4984606;28;20073;-79
2024/01/11 12:48:44;;;;;;;19.65;14.55;;;;;;;;;;4985500;28;20113;-79
2024/01/11 12:51:12;;;;;;;22.80;13.77;;;;;;;;;;4980272;28;20266;-79
2024/01/11 12:53:51;;;;;;;16.27;9.38;;;;;;;;;;4968212;28;20129;-79
2024/01/11 12:56:21;;;;;;;2.50;2.33;;;;;;;;;;4979720;28;20132;-79
2024/01/11 12:58:49;;;;;;;3.70;3.05;;;;;;;;;;4987152;28;20042;-80
2024/01/11 13:01:18;;;;;;;5.47;5.00;;;;;;;;;;4981889;28;20050;-80
2024/01/11 13:03:46;;;;;;;11.85;7.82;;;;;;;;;;4979614;28;20493;-79
2024/01/11 13:06:15;;;;;;;5.70;5.15;;;;;;;;;;4985268;28;20053;-80
2024/01/11 13:08:43;;;;;;;4.75;3.25;;;;;;;;;;4974024;28;20046;-79
2024/01/11 13:11:13;;;;;;;9.60;6.45;;;;;;;;;;4981029;28;20112;-79
2024/01/11 13:13:41;;;;;;;6.07;5.43;;;;;;;;;;4978197;28;20096;-79
2024/01/11 13:16:12;;;;;;;2.20;1.98;;;;;;;;;;4984678;28;20050;-79
2024/01/11 13:18:40;;;;;;;9.75;8.30;;;;;;;;;;4982116;28;20232;-79
2024/01/11 13:21:08;;;;;;;5.30;4.00;;;;;;;;;;4987089;28;20056;-80
2024/01/11 13:23:37;;;;;;;6.40;3.15;;;;;;;;;;4984540;28;20069;-80
2024/01/11 13:26:06;;;;;;;10.07;5.00;;;;;;;;;;4986944;28;20054;-79
2024/01/11 13:28:34;;;;;;;21.15;13.35;;;;;;;;;;4980261;28;20475;-79
2024/01/11 13:31:02;;;;;;;2.85;2.67;;;;;;;;;;4983471;28;20054;-80
2024/01/11 13:33:30;;;;;;;13.10;7.55;;;;;;;;;;4985090;28;20150;-79
2024/01/11 13:35:58;;;;;;;4.75;4.05;;;;;;;;;;4978980;28;20465;-79
2024/01/11 13:38:26;;;;;;;1.58;1.48;;;;;;;;;;4985888;28;20460;-80
2024/01/11 13:40:54;;;;;;;4.90;2.95;;;;;;;;;;4987196;28;20065;-79
2024/01/11 13:43:22;;;;;;;5.85;5.25;;;;;;;;;;4984125;28;20598;-79
2024/01/11 13:45:49;;;;;;;14.13;5.45;;;;;;;;;;4985649;28;20043;-79
2024/01/11 13:48:17;;;;;;;14.05;7.68;;;;;;;;;;4985907;28;20066;-80
2024/01/11 13:50:45;;;;;;;10.88;7.60;;;;;;;;;;4987295;28;20506;-79
2024/01/11 13:53:13;;;;;;;1.75;1.67;;;;;;;;;;4984379;28;20046;-79
2024/01/11 13:55:41;;;;;;;17.80;10.70;;;;;;;;;;4987309;28;20086;-79
2024/01/11 13:58:09;;;;;;;5.40;4.90;;;;;;;;;;4987707;28;20050;-79
2024/01/11 14:00:37;;;;;;;8.38;3.75;;;;;;;;;;4982228;28;20539;-79
2024/01/11 14:03:05;;;;;;;13.02;9.05;;;;;;;;;;4980694;28;20054;-80
2024/01/11 14:05:34;;;;;;;5.22;4.70;;;;;;;;;;4982936;28;20133;-79
2024/01/11 14:08:05;;;;;;;2.60;2.47;;;;;;;;;;4981806;28;20038;-79
2024/01/11 14:10:41;;;;;;;5.63;3.80;;;;;;;;;;4988465;28;20050;-79
2024/01/11 14:13:14;;;;;;;1.88;1.77;;;;;;;;;;4991100;28;20042;-79
2024/01/11 14:15:42;;;;;;;9.27;7.68;;;;;;;;;;4985387;28;20046;-79
2024/01/11 14:18:10;;;;;;;11.10;7.05;;;;;;;;;;4985209;28;20042;-78
2024/01/11 14:20:38;;;;;;;2.15;2.00;;;;;;;;;;4984960;28;20695;-79
2024/01/11 14:23:06;;;;;;;11.20;3.15;;;;;;;;;;4987046;28;20046;-79
2024/01/11 14:25:34;;;;;;;7.75;6.40;;;;;;;;;;4988539;28;20074;-79
2024/01/11 14:28:02;;;;;;;22.70;19.95;;;;;;;;;;4972357;28;20054;-80
2024/01/11 14:30:29;;;;;;;7.40;6.85;;;;;;;;;;4987532;28;20179;-79
2024/01/11 14:32:57;;;;;;;21.58;12.80;;;;;;;;;;4992528;28;20042;-78
2024/01/11 14:35:25;;;;;;;3.03;1.98;;;;;;;;;;4992978;28;20129;-79
2024/01/11 14:37:56;;;;;;;25.83;13.10;;;;;;;;;;5004926;28;20181;-78
2024/01/11 14:40:24;;;;;;;5.65;4.10;;;;;;;;;;4990665;28;20054;-79
2024/01/11 14:42:55;;;;;;;5.45;4.97;;;;;;;;;;4985930;28;20125;-79
2024/01/11 14:45:23;;;;;;;14.93;8.57;;;;;;;;;;4985786;28;20054;-79
2024/01/11 14:47:50;;;;;;;20.73;13.00;;;;;;;;;;4988472;28;20054;-79
2024/01/11 14:50:19;;;;;;;9.07;6.47;;;;;;;;;;4989651;28;20042;-79